CPX17 Details

Departure: Taiwan Taoyuan International Airport (RCTP)
Arrival: Ted Stevens Anchorage International Airport (PANC)
Route: MOLKA M750 MIDAI M750 BUNGU Y81 SYOYU Y809 KAGIS A590 PABBA A590 PASRO A590 HAMND NEELL6


Current Weather Information
RCTP 212230Z VRB01KT 9999 FEW015 BKN050 BKN070 22/17 Q1010 NOSIG RMK A2984
PANC 212153Z 34005KT 10SM FEW030 SCT200 13/06 A3006 RMK AO2 SLP179 T01280056 $